Coleman, FL (33521)

5:02 PM EST en Diciembre 22, 2014 (GMT -0500)
Rands Compound | Change Station
CLOSE
Current Station
Estación meteorológica personal
Location: Sumterville, FL
Altura: 111 ft
Estaciones meteorológicas cercanas

Alt 111 ft 28.74 °N, 82.06 °W | Updated 1 minute ago

Muy nublado
Muy nublado
75.4 ° F
Sensación térmica 77 ° F
N
0.0
Viento Variable Viento desde ESE
Gusts 0.0 mph

Hoy
Alta -- | Baja -- ° F
--% Posibilidad de precipitaciones
Ayer
Alta -- | Baja -- ° F
Precip. -- pul
7:17 AM 5:36 PM
Luna nueva, 1% visible
Presión 29.91 pul
Visibilidad 7.0 Millas
Nubes Despejado
Índice de calor 77 ° F
Punto de rocío 44 ° F
Humedad 33%
Precipitaciones 0.09 pul
Espesor de la nieve No disponible.
UV 0.0 de una escala de 12
Polen .80 de una escala de 12
Calidad del aire No disponible.
Flu Activity No disponible.
METAR KINF 222155Z AUTO 21003KT 7SM CLR 24/19 A2991 RMK AO2 LTG DSNT N AND NW

More Conditions Fewer Conditions

Presión 29.91 pul
Visibilidad 7.0 Millas
Nubes Despejado
Índice de calor 77 ° F
Punto de rocío 44 ° F
Humedad 33%
Precipitaciones 0.09 pul
Espesor de la nieve No disponible.
UV 0.0 de una escala de 12
Polen .80 de una escala de 12
Calidad del aire No disponible.
Flu Activity No disponible.
METAR KINF 222155Z AUTO 21003KT 7SM CLR 24/19 A2991 RMK AO2 LTG DSNT N AND NW

More Conditions Fewer Conditions

10-Day Weather Forecast

Almanac

Astronomía

Dec. 22, 2014 Salida Puesta
Hora real
Crepúsculo civil
Crepúsculo náutico
Crepúsculo astronómico
Luna
Horas de luz
Horas de luz
Tomorrow will be .
, % of the Moon is Illuminated

Extremos de hoy

Máximos del estado Bajos del estado

Community

WunderPhotos

Upload Photos

1,779,691 ¡fotos cargadas!

WunderBlogs® & News

Nearby

Calidad del aire

  Calidad del aire Índice AQ Contaminante
Not available.

Grosos de nieve

Estación Profundido Altura

Actividad de terremotos

Ciudad Distance Mag. Tiempo y dato
Magnitud mínima muestra es 2,5.

Temperaturas de aguas costeras

Lugar Temperatura

Estaciones meteorológicas cercanas